ASP653 KLAX-KSAT
Flight info
| Callsign | ASP653 |
|---|---|
| Flight time | N/A |
| Altitude | 39000 |
| Route | DOTSS2 CNERY BLH J169 KOFFA J50 GBN/N0399F410 J50 ITEMM ELP MOPPP DNKIN2 |
| Aircraft | C25B/M-SDE2E3FGHRWXY/LB1 |
Departure
| Time | 2026-04-21 01:39 |
|---|---|
| Airport | Los Angeles International Airport (KLAX) |
Arrival
| Time | N/A |
|---|---|
| Airport | San Antonio International Airport (KSAT) |
| Time | Latitude | Longitude | Altitude | Speed | Heading |
|---|---|---|---|---|---|
| 2026-04-21 01:22 | 33.93368 | -118.39899 | 88 ft | 0 kts | 109° |
| 2026-04-21 01:32 | 33.93363 | -118.39874 | 90 ft | 12 kts | 95° |
| 2026-04-21 01:32 | 33.93418 | -118.39815 | 88 ft | 13 kts | 355° |
| 2026-04-21 01:33 | 33.93464 | -118.39746 | 88 ft | 13 kts | 85° |
| 2026-04-21 01:33 | 33.93474 | -118.39635 | 88 ft | 14 kts | 84° |
| 2026-04-21 01:33 | 33.93486 | -118.39516 | 89 ft | 15 kts | 83° |
| 2026-04-21 01:33 | 33.93499 | -118.39388 | 88 ft | 16 kts | 83° |
| 2026-04-21 01:34 | 33.93513 | -118.39250 | 88 ft | 17 kts | 83° |
| 2026-04-21 01:34 | 33.93528 | -118.39104 | 88 ft | 18 kts | 82° |
| 2026-04-21 01:34 | 33.93544 | -118.38954 | 88 ft | 18 kts | 83° |
| 2026-04-21 01:34 | 33.93559 | -118.38797 | 88 ft | 19 kts | 83° |
| 2026-04-21 01:35 | 33.93577 | -118.38634 | 88 ft | 20 kts | 82° |
| 2026-04-21 01:35 | 33.93593 | -118.38470 | 89 ft | 20 kts | 83° |
| 2026-04-21 01:35 | 33.93608 | -118.38327 | 91 ft | 11 kts | 79° |
| 2026-04-21 01:35 | 33.93642 | -118.38280 | 90 ft | 0 kts | 14° |
| 2026-04-21 01:36 | 33.93643 | -118.38280 | 90 ft | 0 kts | 13° |
| 2026-04-21 01:37 | 33.93656 | -118.38278 | 92 ft | 7 kts | 1° |
| 2026-04-21 01:37 | 33.93701 | -118.38284 | 92 ft | 6 kts | 353° |
| 2026-04-21 01:37 | 33.93734 | -118.38299 | 92 ft | 4 kts | 279° |
| 2026-04-21 01:38 | 33.93733 | -118.38319 | 92 ft | 0 kts | 263° |
| 2026-04-21 01:39 | 33.93732 | -118.38320 | 92 ft | 2 kts | 263° |
| 2026-04-21 01:39 | 33.93697 | -118.38670 | 90 ft | 90 kts | 263° |
| 2026-04-21 01:39 | 33.93599 | -118.39696 | 379 ft | 144 kts | 263° |
| 2026-04-21 01:39 | 33.93474 | -118.41071 | 1029 ft | 182 kts | 263° |
| 2026-04-21 01:40 | 33.93307 | -118.42635 | 2102 ft | 191 kts | 262° |
| 2026-04-21 01:40 | 33.93125 | -118.44240 | 3211 ft | 199 kts | 261° |
| 2026-04-21 01:40 | 33.92721 | -118.45911 | 4033 ft | 219 kts | 244° |
| 2026-04-21 01:40 | 33.91849 | -118.47499 | 4871 ft | 231 kts | 232° |
| 2026-04-21 01:41 | 33.90853 | -118.49020 | 5970 ft | 233 kts | 231° |
| 2026-04-21 01:41 | 33.89815 | -118.50557 | 6936 ft | 239 kts | 230° |
| 2026-04-21 01:41 | 33.88768 | -118.52133 | 7932 ft | 243 kts | 230° |
| 2026-04-21 01:41 | 33.87671 | -118.53693 | 8870 ft | 246 kts | 222° |
| 2026-04-21 01:42 | 33.86250 | -118.54834 | 9799 ft | 247 kts | 206° |
| 2026-04-21 01:42 | 33.84628 | -118.55494 | 10729 ft | 247 kts | 189° |
| 2026-04-21 01:42 | 33.82911 | -118.55596 | 11648 ft | 249 kts | 175° |
| 2026-04-21 01:42 | 33.81207 | -118.55160 | 12516 ft | 252 kts | 169° |
| 2026-04-21 01:43 | 33.79505 | -118.54730 | 13359 ft | 254 kts | 171° |
| 2026-04-21 01:43 | 33.77753 | -118.54255 | 14205 ft | 256 kts | 170° |
| 2026-04-21 01:43 | 33.76001 | -118.53781 | 15005 ft | 259 kts | 170° |
| 2026-04-21 01:43 | 33.74253 | -118.53304 | 15778 ft | 262 kts | 171° |
| 2026-04-21 01:44 | 33.72523 | -118.52550 | 16539 ft | 269 kts | 157° |
| 2026-04-21 01:44 | 33.70896 | -118.51346 | 17002 ft | 288 kts | 147° |
| 2026-04-21 01:44 | 33.69431 | -118.49525 | 17241 ft | 312 kts | 132° |
| 2026-04-21 01:44 | 33.68308 | -118.47274 | 18013 ft | 317 kts | 117° |
| 2026-04-21 01:45 | 33.67637 | -118.44830 | 19228 ft | 302 kts | 115° |
| 2026-04-21 01:45 | 33.66879 | -118.42474 | 19879 ft | 305 kts | 117° |
| 2026-04-21 01:45 | 33.66144 | -118.40061 | 20552 ft | 309 kts | 116° |
| 2026-04-21 01:45 | 33.65430 | -118.37613 | 21222 ft | 312 kts | 115° |
| 2026-04-21 01:46 | 33.64744 | -118.35127 | 21856 ft | 317 kts | 110° |
| 2026-04-21 01:46 | 33.64462 | -118.32455 | 22488 ft | 327 kts | 98° |
| 2026-04-21 01:46 | 33.64453 | -118.29702 | 23031 ft | 335 kts | 95° |
| 2026-04-21 01:46 | 33.64453 | -118.26805 | 23046 ft | 358 kts | 95° |
| 2026-04-21 01:47 | 33.64460 | -118.23779 | 23049 ft | 377 kts | 95° |
| 2026-04-21 01:47 | 33.64459 | -118.20526 | 23049 ft | 393 kts | 94° |
| 2026-04-21 01:47 | 33.64465 | -118.17189 | 23050 ft | 406 kts | 94° |
| 2026-04-21 01:47 | 33.64465 | -118.13795 | 23041 ft | 405 kts | 94° |
| 2026-04-21 01:48 | 33.64469 | -118.10435 | 23020 ft | 401 kts | 95° |
| 2026-04-21 01:48 | 33.64462 | -118.07108 | 23020 ft | 397 kts | 94° |
| 2026-04-21 01:48 | 33.64461 | -118.03831 | 23016 ft | 400 kts | 95° |
| 2026-04-21 01:48 | 33.64451 | -118.00489 | 23011 ft | 398 kts | 94° |
| 2026-04-21 01:49 | 33.64454 | -117.97185 | 23013 ft | 394 kts | 94° |
| 2026-04-21 01:49 | 33.64445 | -117.93911 | 23021 ft | 391 kts | 95° |
| 2026-04-21 01:49 | 33.64441 | -117.90662 | 23020 ft | 388 kts | 95° |
| 2026-04-21 01:49 | 33.64429 | -117.87438 | 23029 ft | 385 kts | 95° |
| 2026-04-21 01:50 | 33.64425 | -117.84229 | 23029 ft | 384 kts | 95° |
| 2026-04-21 01:50 | 33.64402 | -117.81039 | 23027 ft | 381 kts | 97° |
| 2026-04-21 01:50 | 33.63998 | -117.77940 | 23027 ft | 373 kts | 109° |
| 2026-04-21 01:50 | 33.63295 | -117.74963 | 23029 ft | 370 kts | 111° |
| 2026-04-21 01:51 | 33.62571 | -117.72004 | 23134 ft | 368 kts | 111° |
| 2026-04-21 01:51 | 33.61857 | -117.69134 | 24254 ft | 345 kts | 111° |
| 2026-04-21 01:51 | 33.61205 | -117.66452 | 25410 ft | 330 kts | 112° |
| 2026-04-21 01:51 | 33.60548 | -117.63824 | 25846 ft | 337 kts | 112° |
| 2026-04-21 01:52 | 33.59872 | -117.61113 | 26377 ft | 341 kts | 112° |
| 2026-04-21 01:52 | 33.58517 | -117.55607 | 27430 ft | 348 kts | 111° |
| 2026-04-21 01:52 | 33.57834 | -117.52835 | 28099 ft | 346 kts | 111° |
| 2026-04-21 01:53 | 33.57145 | -117.50070 | 28718 ft | 346 kts | 111° |
| 2026-04-21 01:53 | 33.56460 | -117.47309 | 29343 ft | 345 kts | 111° |
| 2026-04-21 01:53 | 33.55774 | -117.44546 | 29958 ft | 345 kts | 111° |
| 2026-04-21 01:53 | 33.55091 | -117.41789 | 30589 ft | 345 kts | 111° |
| 2026-04-21 01:54 | 33.54404 | -117.39037 | 31212 ft | 344 kts | 111° |
| 2026-04-21 01:54 | 33.53720 | -117.36289 | 31818 ft | 344 kts | 111° |
| 2026-04-21 01:54 | 33.53033 | -117.33539 | 32420 ft | 344 kts | 112° |
| 2026-04-21 01:54 | 33.52347 | -117.30792 | 33045 ft | 344 kts | 112° |
| 2026-04-21 01:55 | 33.51662 | -117.28049 | 33655 ft | 343 kts | 112° |
| 2026-04-21 01:55 | 33.50977 | -117.25311 | 34250 ft | 343 kts | 112° |
| 2026-04-21 01:55 | 33.50502 | -117.22483 | 34819 ft | 350 kts | 99° |
| 2026-04-21 01:55 | 33.50430 | -117.19563 | 35429 ft | 351 kts | 96° |
| 2026-04-21 01:56 | 33.50392 | -117.16644 | 35984 ft | 350 kts | 96° |
| 2026-04-21 01:56 | 33.50358 | -117.13726 | 36536 ft | 350 kts | 96° |
| 2026-04-21 01:56 | 33.50319 | -117.10848 | 37056 ft | 350 kts | 97° |
| 2026-04-21 01:56 | 33.50278 | -117.07893 | 37584 ft | 350 kts | 97° |
| 2026-04-21 01:57 | 33.50239 | -117.05012 | 38095 ft | 350 kts | 97° |
| 2026-04-21 01:57 | 33.50196 | -117.02098 | 38564 ft | 350 kts | 97° |
| 2026-04-21 01:57 | 33.50156 | -116.99174 | 39054 ft | 350 kts | 97° |
| 2026-04-21 01:57 | 33.50115 | -116.96261 | 39531 ft | 350 kts | 97° |
| 2026-04-21 01:58 | 33.50069 | -116.93342 | 39952 ft | 351 kts | 97° |
| 2026-04-21 01:58 | 33.50027 | -116.90410 | 40367 ft | 352 kts | 97° |
| 2026-04-21 01:58 | 33.49982 | -116.87473 | 40792 ft | 353 kts | 97° |
| 2026-04-21 01:58 | 33.49938 | -116.84532 | 41199 ft | 354 kts | 97° |
| 2026-04-21 01:59 | 33.49889 | -116.81579 | 41594 ft | 355 kts | 97° |
| 2026-04-21 01:59 | 33.49843 | -116.78616 | 41966 ft | 356 kts | 97° |
| 2026-04-21 01:59 | 33.49795 | -116.75645 | 42322 ft | 358 kts | 97° |
| 2026-04-21 01:59 | 33.49746 | -116.72660 | 42661 ft | 359 kts | 97° |
| 2026-04-21 02:00 | 33.49697 | -116.69656 | 42994 ft | 361 kts | 97° |
| 2026-04-21 02:00 | 33.49645 | -116.66686 | 43304 ft | 362 kts | 97° |
| 2026-04-21 02:00 | 33.49596 | -116.63658 | 43612 ft | 364 kts | 97° |
| 2026-04-21 02:00 | 33.49542 | -116.60623 | 43931 ft | 365 kts | 97° |
| 2026-04-21 02:01 | 33.49489 | -116.57573 | 44232 ft | 366 kts | 97° |
| 2026-04-21 02:01 | 33.49435 | -116.54526 | 44567 ft | 366 kts | 97° |
| 2026-04-21 02:01 | 33.49381 | -116.51482 | 44920 ft | 366 kts | 97° |
| 2026-04-21 02:01 | 33.49321 | -116.48391 | 44933 ft | 377 kts | 97° |
| 2026-04-21 02:02 | 33.49261 | -116.45206 | 44931 ft | 387 kts | 96° |
| 2026-04-21 02:02 | 33.49148 | -116.38579 | 44930 ft | 408 kts | 96° |
| 2026-04-21 02:03 | 33.49060 | -116.31665 | 44931 ft | 418 kts | 96° |
| 2026-04-21 02:03 | 33.48950 | -116.24701 | 44916 ft | 417 kts | 96° |
| 2026-04-21 02:04 | 33.48843 | -116.17766 | 44918 ft | 416 kts | 96° |
| 2026-04-21 02:04 | 33.48726 | -116.10832 | 44907 ft | 416 kts | 96° |
| 2026-04-21 02:05 | 33.48797 | -116.03902 | 44891 ft | 420 kts | 85° |
| 2026-04-21 02:05 | 33.49444 | -116.00522 | 44884 ft | 423 kts | 74° |
| 2026-04-21 02:05 | 33.50450 | -115.97157 | 44899 ft | 423 kts | 72° |
| 2026-04-21 02:06 | 33.52384 | -115.90499 | 44902 ft | 423 kts | 73° |
| 2026-04-21 02:06 | 33.54324 | -115.83879 | 44905 ft | 424 kts | 72° |
| 2026-04-21 02:07 | 33.56267 | -115.77204 | 44907 ft | 424 kts | 73° |
| 2026-04-21 02:07 | 33.58212 | -115.70518 | 44905 ft | 424 kts | 73° |
| 2026-04-21 02:08 | 33.60151 | -115.63838 | 44913 ft | 424 kts | 73° |
| 2026-04-21 02:08 | 33.61628 | -115.57040 | 44928 ft | 419 kts | 89° |
| 2026-04-21 02:09 | 33.61565 | -115.50093 | 44927 ft | 415 kts | 96° |
| 2026-04-21 02:09 | 33.61445 | -115.44331 | 44928 ft | 416 kts | 96° |
| 2026-04-21 02:10 | 33.61268 | -115.37396 | 44915 ft | 416 kts | 96° |
| 2026-04-21 02:10 | 33.61098 | -115.30449 | 44914 ft | 416 kts | 96° |
| 2026-04-21 02:11 | 33.60888 | -115.22344 | 44915 ft | 416 kts | 96° |
| 2026-04-21 02:11 | 33.60737 | -115.16583 | 44915 ft | 416 kts | 96° |
| 2026-04-21 02:12 | 33.60553 | -115.09651 | 44915 ft | 416 kts | 96° |
| 2026-04-21 02:12 | 33.60365 | -115.02717 | 44904 ft | 416 kts | 96° |
| 2026-04-21 02:13 | 33.60173 | -114.95772 | 44904 ft | 416 kts | 96° |
| 2026-04-21 02:13 | 33.59975 | -114.88836 | 44904 ft | 416 kts | 96° |
| 2026-04-21 02:14 | 33.59774 | -114.81890 | 44904 ft | 417 kts | 96° |
| 2026-04-21 02:14 | 33.59521 | -114.74986 | 44909 ft | 415 kts | 100° |
| 2026-04-21 02:15 | 33.58886 | -114.68119 | 44905 ft | 415 kts | 101° |
| 2026-04-21 02:15 | 33.58287 | -114.61220 | 44904 ft | 415 kts | 100° |